Nordic Harrier — V7VH2 — position and weather

sailwx.info

Track history (hours):
 
Tides and Currents Weather Stations Pressure Air Temp Water Temp Dewpoint Dewpoint Depression Visibility Wind Speed Wind Dir Waves Ship Positions

Nordic Harrier

Last reported at 2014-Jul-22 04:25 UTC. Time now 2014-Jul-23 20:12 UTC.
Position N 35°33' E 014°16'.

Length 274 m; draft 16.6 m.

Type: Ship. MMSI: 538004121.

Date/timePositionNaut miles runAvg speedWind from/ knotsBaromVisibWave heightAir tempDewpointWater temp
2014-Jul-22 04:25N 35°33' E 014°16'910.8
2014-Jul-22 03:34N 35°29' E 014°26'1111.3
2014-Jul-22 02:33N 35°26' E 014°39'1111.3
2014-Jul-22 01:33N 35°23' E 014°53'1311.3
2014-Jul-22 00:26N 35°20' E 015°08'1011.5
2014-Jul-21 23:33N 35°18' E 015°20'1211.7
2014-Jul-21 22:34N 35°15' E 015°33'1211.6
2014-Jul-21 21:34N 35°12' E 015°47'1211.9
2014-Jul-21 20:32N 35°09' E 016°02'312.1
2014-Jul-21 20:18N 35°09' E 016°05'1012.1
2014-Jul-21 19:30N 35°06' E 016°17'  
Track history (hours):
 
Tides and Currents Weather Stations Pressure Air Temp Water Temp Dewpoint Dewpoint Depression Visibility Wind Speed Wind Dir Waves Ship Positions

Nordic Harrier

Last reported at 2014-Jul-22 04:25 UTC. Time now 2014-Jul-23 20:12 UTC.
Position N 35°33' E 014°16'.

Length 274 m; draft 16.6 m.

Type: Ship. MMSI: 538004121.

Date/timePositionNaut miles runAvg speedWind from/ knotsBaromVisibWave heightAir tempDewpointWater temp
2014-Jul-22 04:25N 35°33' E 014°16'910.8
2014-Jul-22 03:34N 35°29' E 014°26'1111.3
2014-Jul-22 02:33N 35°26' E 014°39'1111.3
2014-Jul-22 01:33N 35°23' E 014°53'1311.3
2014-Jul-22 00:26N 35°20' E 015°08'1011.5
2014-Jul-21 23:33N 35°18' E 015°20'1211.7
2014-Jul-21 22:34N 35°15' E 015°33'1211.6
2014-Jul-21 21:34N 35°12' E 015°47'1211.9
2014-Jul-21 20:32N 35°09' E 016°02'312.1
2014-Jul-21 20:18N 35°09' E 016°05'1012.1
2014-Jul-21 19:30N 35°06' E 016°17'  

Dump ship's entire track history